Impacts TAF Board
For situational awareness. Not to be used for flight planning purposes.
IDs:

KTCL - Tuscaloosa Rgnl, AL, US

Issued at 0536 UTC 24 Jan 2019
Updated at 0735 UTC 24 Jan 2019
Potential Impact None Slight Moderate High
Time0653Z 24/08Z 24/09Z 24/10Z 24/11Z 24/12Z 24/13Z 24/14Z 24/15Z 24/16Z 24/17Z 24/18Z 24/19Z 24/20Z>>
Type OBS PRVL PRVL PRVL PRVL PRVL PRVL PRVL PRVL PRVL PRVL PRVL PRVL PRVL
VIS 6 >6 >6 >6 >6 >6 >6 >6 >6 >6 >6 >6 >6 >6
CIG 8 8 8 8 15 15 15 25 25 25 -- -- -- --
Cover OVC OVC OVC OVC OVC OVC OVC BKN BKN BKN SCT SCT SCT SCT
FltCat IFR IFR IFR IFR MVFR MVFR MVFR MVFR MVFR MVFR VFR VFR VFR VFR
WX BR -- -- -- -- -- -- -- -- -- -- -- -- --
WDir 310 310 310 310 320 320 320 320 320 320 320 320 320 320
WSpd 11 12 12 12 10 10 10 10 10 10 10 10 10 10
WGst 17 18 18 18 -- -- -- -- -- -- -- -- -- --
Raw TAF
KTCL 240536Z 2406/2506 31012G18KT P6SM OVC008
  FM241100 32010KT P6SM OVC015
  FM241400 32010KT P6SM BKN025
  FM241700 32010KT P6SM SCT030


Raw METAR
KTCL 240653Z AUTO 31011G17KT 6SM BR OVC008 03/01 A2992 RMK AO2 RAB14E23 CIG 006V010 SLP132 P0000 T00330011
KTCL 240553Z AUTO 30008G18KT 7SM OVC005 04/03 A2991 RMK AO2 RAB13E47 CIG 004V008 SLP127 P0000 60006 T00440028 10128 20044 401720044 53013
KTCL 240453Z AUTO 32009KT 6SM BR OVC009 06/03 A2987 RMK AO2 RAB24E47 CIG 007V012 SLP114 P0001 T00560033
KTCL 240449Z AUTO 31010KT 6SM BR OVC009 06/03 A2988 RMK AO2 RAB24E47 CIG 007V012 P0001

METAR Board
Radar Display
Forecast Discussion
For situational awareness. Not to be used for flight planning purposes.